In Rescue
 
Open Full Screen Window  High Contrast Mode
July 24, 2024 4:43 PM CDT
Weather Information
Wind Direction
  ---
Wind Speed
  00 kt (0 mph)
Wind Gust
  00 kt (0 mph)
Altimeter
30.20 in
Visibility
10 SM
Temperature
23° C
73° F
Dewpoint
16° C
61° F
Humidity
65%
1hr Rain Fall
00.00 in.
24hr Rain Fall
00.09 in.
Sky Condition
Overcast @ 4,200 ft
Scattered @ 3,400 ft
VFR

METAR KACQ 242143Z AUTO 00000KT 10SM SCT034 OVC042 23/16 A3020 RMK AO2

FAA Disclaimer: The data displayed is for advisory purposes only and is not to be used for flight planning or operations.